createdAt,value
2019-03-01T00:00:00.958Z,6.48
2019-03-01T00:01:00.951Z,6.54
2019-03-01T00:02:00.940Z,6.63
2019-03-01T00:03:00.934Z,6.62
2019-03-01T00:04:00.928Z,6.56
2019-03-01T00:05:00.918Z,6.49
2019-03-01T00:06:00.910Z,6.48
2019-03-01T00:07:00.912Z,6.56
2019-03-01T00:09:32.498Z,6.51
2019-03-01T00:10:32.474Z,6.59
2019-03-01T00:12:25.337Z,6.51
2019-03-01T00:13:25.323Z,6.54
2019-03-01T00:15:18.199Z,6.48
2019-03-01T00:16:18.177Z,6.51
2019-03-01T00:17:18.169Z,6.51
2019-03-01T00:18:18.162Z,6.52
2019-03-01T00:19:18.154Z,6.56
2019-03-01T00:20:18.144Z,6.51
2019-03-01T00:21:18.137Z,6.52
2019-03-01T00:22:18.128Z,6.48
2019-03-01T00:23:18.125Z,6.56
2019-03-01T00:24:18.117Z,6.62
2019-03-01T00:25:18.107Z,6.59
2019-03-01T00:26:18.096Z,6.59
2019-03-01T00:27:18.091Z,6.59
2019-03-01T00:28:18.092Z,6.63
2019-03-01T00:29:18.068Z,6.57
2019-03-01T00:30:18.072Z,6.54
2019-03-01T00:31:18.057Z,6.59
2019-03-01T00:32:18.061Z,6.70
2019-03-01T00:33:18.059Z,6.59
2019-03-01T00:34:18.033Z,6.56
2019-03-01T00:35:18.027Z,6.59
2019-03-01T00:36:18.016Z,6.63
2019-03-01T00:37:18.024Z,6.59
2019-03-01T00:38:18.001Z,6.63
2019-03-01T00:39:17.992Z,6.49
2019-03-01T00:40:17.986Z,6.59
2019-03-01T00:41:17.976Z,6.60
2019-03-01T00:42:17.968Z,6.51
2019-03-01T00:43:17.963Z,6.57
2019-03-01T00:44:17.953Z,6.51
2019-03-01T00:45:17.944Z,6.49
2019-03-01T00:46:17.934Z,6.46
2019-03-01T00:47:17.930Z,6.51
2019-03-01T00:48:17.921Z,6.57
2019-03-01T00:49:17.914Z,6.51
2019-03-01T00:50:17.905Z,6.48
2019-03-01T00:51:17.896Z,6.59
2019-03-01T00:52:17.888Z,6.54
2019-03-01T00:53:17.879Z,6.48
2019-03-01T00:54:17.875Z,6.48
2019-03-01T00:55:17.864Z,6.56
2019-03-01T00:56:17.856Z,6.60
2019-03-01T00:57:17.855Z,6.49
2019-03-01T00:58:17.838Z,6.52
2019-03-01T00:59:17.831Z,6.51
2019-03-01T01:00:17.818Z,6.59
2019-03-01T01:01:17.814Z,6.52
2019-03-01T01:02:17.809Z,6.54
2019-03-01T01:03:17.798Z,6.48
2019-03-01T01:04:17.792Z,6.54
2019-03-01T01:05:17.786Z,6.63
2019-03-01T01:06:17.776Z,6.59
2019-03-01T01:07:17.770Z,6.54
2019-03-01T01:08:17.763Z,6.56
2019-03-01T01:09:17.750Z,6.63
2019-03-01T01:10:17.745Z,6.60
2019-03-01T01:11:17.733Z,6.59
2019-03-01T01:12:17.725Z,6.48
2019-03-01T01:13:17.719Z,6.59
2019-03-01T01:14:17.709Z,6.49
2019-03-01T01:15:17.703Z,6.57
2019-03-01T01:16:17.693Z,6.45
2019-03-01T01:17:17.686Z,6.49
2019-03-01T01:18:17.677Z,6.51
2019-03-01T01:19:17.672Z,6.60
2019-03-01T01:20:17.662Z,6.57
2019-03-01T01:21:17.656Z,6.57
2019-03-01T01:22:17.642Z,6.54
2019-03-01T01:23:17.647Z,6.51
2019-03-01T01:24:17.634Z,6.54
2019-03-01T01:25:17.622Z,6.54
2019-03-01T01:26:17.616Z,6.62
2019-03-01T01:27:17.605Z,6.56
2019-03-01T01:28:17.597Z,6.46
2019-03-01T01:29:17.589Z,6.60
2019-03-01T01:30:17.580Z,6.49
2019-03-01T01:31:17.576Z,6.56
2019-03-01T01:32:17.568Z,6.52
2019-03-01T01:33:17.559Z,6.48
2019-03-01T01:34:17.556Z,6.42
2019-03-01T01:35:17.541Z,6.45
2019-03-01T01:36:17.538Z,6.46
2019-03-01T01:37:17.562Z,6.44
2019-03-01T01:38:17.518Z,6.39
2019-03-01T01:39:17.508Z,6.33
2019-03-01T01:40:17.501Z,6.28
2019-03-01T01:41:17.497Z,6.39
2019-03-01T01:42:17.483Z,6.39
2019-03-01T01:43:17.475Z,6.38
2019-03-01T01:44:17.468Z,6.39
2019-03-01T01:45:17.459Z,6.38
2019-03-01T01:46:17.452Z,6.33
2019-03-01T01:47:17.446Z,6.31
2019-03-01T01:48:17.437Z,6.22
2019-03-01T01:49:17.429Z,6.12
2019-03-01T01:50:17.422Z,6.09
2019-03-01T01:51:17.419Z,6.09
2019-03-01T01:52:17.428Z,5.99
2019-03-01T01:53:17.396Z,6.07
2019-03-01T01:54:17.388Z,6.02
2019-03-01T01:55:17.380Z,5.86
2019-03-01T01:56:17.374Z,5.79
2019-03-01T01:57:17.372Z,5.71
2019-03-01T01:58:17.357Z,5.72
2019-03-01T01:59:17.350Z,5.71
2019-03-01T02:00:17.340Z,5.56
2019-03-01T02:01:17.336Z,5.57
2019-03-01T02:02:17.325Z,5.51
2019-03-01T02:03:17.316Z,5.43
2019-03-01T02:04:17.357Z,5.44
2019-03-01T02:05:17.299Z,5.38
2019-03-01T02:06:17.290Z,5.32
2019-03-01T02:07:17.281Z,5.28
2019-03-01T02:08:17.275Z,5.23
2019-03-01T02:09:17.316Z,5.17
2019-03-01T02:10:17.257Z,5.21
2019-03-01T02:11:17.249Z,5.07
2019-03-01T02:12:17.240Z,5.07
2019-03-01T02:14:48.835Z,4.96
2019-03-01T02:15:48.815Z,4.89
2019-03-01T02:17:41.676Z,4.82
2019-03-01T02:18:41.662Z,4.84
2019-03-01T02:20:34.534Z,4.84
2019-03-01T02:21:34.513Z,4.71
2019-03-01T02:22:34.504Z,4.78
2019-03-01T02:23:34.496Z,4.73
2019-03-01T02:24:34.486Z,4.67
2019-03-01T02:25:34.481Z,4.71
2019-03-01T02:26:34.468Z,4.78
2019-03-01T02:27:34.463Z,4.68
2019-03-01T02:28:34.453Z,4.63
2019-03-01T02:29:34.445Z,4.77
2019-03-01T02:30:34.444Z,4.80
2019-03-01T02:31:34.428Z,4.73
2019-03-01T02:32:34.420Z,4.68
2019-03-01T02:33:34.412Z,4.63
2019-03-01T02:34:34.489Z,4.62
2019-03-01T02:35:34.400Z,4.66
2019-03-01T02:36:34.386Z,4.63
2019-03-01T02:37:34.382Z,4.59
2019-03-01T02:38:34.369Z,4.45
2019-03-01T02:39:34.372Z,4.41
2019-03-01T02:40:34.350Z,4.45
2019-03-01T02:41:34.344Z,4.35
2019-03-01T02:42:34.334Z,4.37
2019-03-01T02:43:34.328Z,4.41
2019-03-01T02:44:34.328Z,4.34
2019-03-01T02:45:34.307Z,4.40
2019-03-01T02:46:34.314Z,4.38
2019-03-01T02:47:34.290Z,4.44
2019-03-01T02:48:34.300Z,4.38
2019-03-01T02:49:34.281Z,4.37
2019-03-01T02:50:34.267Z,4.44
2019-03-01T02:51:34.257Z,4.38
2019-03-01T02:52:34.251Z,4.52
2019-03-01T02:53:34.241Z,4.49
2019-03-01T02:54:34.229Z,4.60
2019-03-01T02:55:34.222Z,4.56
2019-03-01T02:56:34.213Z,4.60
2019-03-01T02:57:34.204Z,4.68
2019-03-01T02:58:34.208Z,4.62
2019-03-01T02:59:34.186Z,4.71
2019-03-01T03:00:34.176Z,4.71
2019-03-01T03:01:34.168Z,4.82
2019-03-01T03:02:34.165Z,4.84
2019-03-01T03:03:34.157Z,4.87
2019-03-01T03:04:34.142Z,4.80
2019-03-01T03:05:34.134Z,4.94
2019-03-01T03:06:34.128Z,5.02
2019-03-01T03:07:34.117Z,4.99
2019-03-01T03:08:34.114Z,5.02
2019-03-01T03:09:34.103Z,5.07
2019-03-01T03:10:34.091Z,5.11
2019-03-01T03:11:34.083Z,5.12
2019-03-01T03:12:34.074Z,5.15
2019-03-01T03:13:34.065Z,5.10
2019-03-01T03:14:34.059Z,5.12
2019-03-01T03:15:34.047Z,4.99
2019-03-01T03:16:34.042Z,5.05
2019-03-01T03:17:34.028Z,4.96
2019-03-01T03:18:34.025Z,5.05
2019-03-01T03:19:34.016Z,5.12
2019-03-01T03:20:34.004Z,5.10
2019-03-01T03:21:33.997Z,5.18
2019-03-01T03:22:33.988Z,5.15
2019-03-01T03:23:33.983Z,5.15
2019-03-01T03:24:33.972Z,5.26
2019-03-01T03:25:33.961Z,5.21
2019-03-01T03:26:33.952Z,5.28
2019-03-01T03:27:33.946Z,5.23
2019-03-01T03:28:33.933Z,5.26
2019-03-01T03:29:33.928Z,5.25
2019-03-01T03:30:33.928Z,5.36
2019-03-01T03:31:33.910Z,5.33
2019-03-01T03:32:33.902Z,5.35
2019-03-01T03:33:33.893Z,5.36
2019-03-01T03:34:33.902Z,5.39
2019-03-01T03:35:33.875Z,5.33
2019-03-01T03:36:33.868Z,5.38
2019-03-01T03:37:33.859Z,5.38
2019-03-01T03:38:33.851Z,5.44
2019-03-01T03:39:33.841Z,5.46
2019-03-01T03:40:33.844Z,5.48
2019-03-01T03:41:33.825Z,5.46
2019-03-01T03:42:33.816Z,5.41
2019-03-01T03:43:33.810Z,5.51
2019-03-01T03:44:33.801Z,5.53
2019-03-01T03:45:33.799Z,5.53
2019-03-01T03:46:33.788Z,5.61
2019-03-01T03:47:33.776Z,5.59
2019-03-01T03:48:36.049Z,5.56
2019-03-01T03:49:33.764Z,5.59
2019-03-01T03:50:33.756Z,5.56
2019-03-01T03:51:33.743Z,5.57
2019-03-01T03:52:33.734Z,5.68
2019-03-01T03:53:33.724Z,5.59
2019-03-01T03:54:33.722Z,5.56
2019-03-01T03:55:33.708Z,5.62
2019-03-01T03:56:33.698Z,5.62
2019-03-01T03:57:33.691Z,5.64
2019-03-01T03:58:33.686Z,5.62
2019-03-01T03:59:33.675Z,5.64
2019-03-01T04:00:33.667Z,5.66
2019-03-01T04:01:33.657Z,5.64
2019-03-01T04:02:33.651Z,5.62
2019-03-01T04:03:33.643Z,5.64
2019-03-01T04:04:33.637Z,5.65
2019-03-01T04:05:33.632Z,5.75
2019-03-01T04:06:33.616Z,5.75
2019-03-01T04:07:33.610Z,5.72
2019-03-01T04:08:33.606Z,5.79
2019-03-01T04:09:33.593Z,5.82
2019-03-01T04:10:33.587Z,5.82
2019-03-01T04:11:33.574Z,5.82
2019-03-01T04:12:33.570Z,5.82
2019-03-01T04:13:33.560Z,5.76
2019-03-01T04:14:33.551Z,5.76
2019-03-01T04:15:33.544Z,5.84
2019-03-01T04:16:33.535Z,5.75
2019-03-01T04:17:33.534Z,5.87
2019-03-01T04:18:33.520Z,5.86
2019-03-01T04:19:33.511Z,5.83
2019-03-01T04:20:33.501Z,5.76
2019-03-01T04:21:33.497Z,5.80
2019-03-01T04:22:33.492Z,5.89
2019-03-01T04:23:33.480Z,5.89
2019-03-01T04:24:33.471Z,5.84
2019-03-01T04:25:33.463Z,5.94
2019-03-01T04:26:33.453Z,5.98
2019-03-01T04:27:33.452Z,5.97
2019-03-01T04:28:33.437Z,5.91
2019-03-01T04:29:33.429Z,5.89
2019-03-01T04:30:33.427Z,5.91
2019-03-01T04:31:33.411Z,5.89
2019-03-01T04:32:33.403Z,5.89
2019-03-01T04:33:33.399Z,5.89
2019-03-01T04:34:33.388Z,5.83
2019-03-01T04:35:33.381Z,5.91
2019-03-01T04:36:33.369Z,5.87
2019-03-01T04:37:33.364Z,5.91
2019-03-01T04:38:33.355Z,5.87
2019-03-01T04:39:33.350Z,5.87
2019-03-01T04:40:33.341Z,5.90
2019-03-01T04:41:33.334Z,5.91
2019-03-01T04:42:33.326Z,5.90
2019-03-01T04:43:33.319Z,5.86
2019-03-01T04:44:33.308Z,5.94
2019-03-01T04:45:33.299Z,5.84
2019-03-01T04:46:33.290Z,5.75
2019-03-01T04:47:33.286Z,5.86
2019-03-01T04:48:33.274Z,5.80
2019-03-01T04:49:33.266Z,5.83
2019-03-01T04:50:33.260Z,5.80
2019-03-01T04:51:39.880Z,5.79
2019-03-01T04:52:33.245Z,5.87
2019-03-01T04:53:33.235Z,5.91
2019-03-01T04:54:33.230Z,5.87
2019-03-01T04:55:33.219Z,5.91
2019-03-01T04:56:33.210Z,5.86
2019-03-01T04:57:33.201Z,5.90
2019-03-01T04:58:33.194Z,5.90
2019-03-01T04:59:33.186Z,5.89
2019-03-01T05:00:33.180Z,5.93
2019-03-01T05:01:33.169Z,5.94
2019-03-01T05:02:33.163Z,5.93
2019-03-01T05:03:33.153Z,5.90
2019-03-01T05:04:33.144Z,5.99
2019-03-01T05:05:33.143Z,5.97
2019-03-01T05:06:33.131Z,5.97
2019-03-01T05:07:33.130Z,5.97
2019-03-01T05:08:33.117Z,5.84
2019-03-01T05:09:33.106Z,5.86
2019-03-01T05:10:33.100Z,5.86
2019-03-01T05:11:33.111Z,5.97
2019-03-01T05:12:33.085Z,5.97
2019-03-01T05:13:33.074Z,5.94
2019-03-01T05:14:33.079Z,5.90
2019-03-01T05:15:33.056Z,5.98
2019-03-01T05:16:33.058Z,5.91
2019-03-01T05:17:33.039Z,5.94
2019-03-01T05:18:33.034Z,5.93
2019-03-01T05:19:33.024Z,5.90
2019-03-01T05:20:33.014Z,5.86
2019-03-01T05:21:33.009Z,5.97
2019-03-01T05:22:33.001Z,6.01
2019-03-01T05:23:32.990Z,5.90
2019-03-01T05:24:32.982Z,6.02
2019-03-01T05:25:32.977Z,5.90
2019-03-01T05:26:32.966Z,6.01
2019-03-01T05:27:32.962Z,6.01
2019-03-01T05:28:32.949Z,6.01
2019-03-01T05:29:32.942Z,5.99
2019-03-01T05:30:32.936Z,6.01
2019-03-01T05:31:32.925Z,6.01
2019-03-01T05:32:32.917Z,5.99
2019-03-01T05:33:32.909Z,6.05
2019-03-01T05:34:32.902Z,6.02
2019-03-01T05:35:32.896Z,5.99
2019-03-01T05:36:32.883Z,6.04
2019-03-01T05:37:32.878Z,5.99
2019-03-01T05:38:32.869Z,5.99
2019-03-01T05:39:32.863Z,6.09
2019-03-01T05:40:32.853Z,6.04
2019-03-01T05:41:32.843Z,6.07
2019-03-01T05:42:32.836Z,6.09
2019-03-01T05:43:32.829Z,6.07
2019-03-01T05:44:32.818Z,6.09
2019-03-01T05:45:32.809Z,6.08
2019-03-01T05:46:32.808Z,6.05
2019-03-01T05:47:32.798Z,6.07
2019-03-01T05:48:32.829Z,6.04
2019-03-01T05:49:32.779Z,6.07
2019-03-01T05:50:32.775Z,6.09
2019-03-01T05:51:32.766Z,6.04
2019-03-01T05:52:32.756Z,6.02
2019-03-01T05:53:32.745Z,6.02
2019-03-01T05:54:32.737Z,6.01
2019-03-01T05:55:32.737Z,6.04
2019-03-01T05:56:32.723Z,6.01
2019-03-01T05:57:32.714Z,5.99
2019-03-01T05:58:32.706Z,6.07
2019-03-01T05:59:32.697Z,6.14
2019-03-01T06:00:32.688Z,6.07
2019-03-01T06:01:32.676Z,6.09
2019-03-01T06:02:32.674Z,6.02
2019-03-01T06:03:32.663Z,6.17
2019-03-01T06:04:32.656Z,6.09
2019-03-01T06:05:32.648Z,6.12
2019-03-01T06:06:32.646Z,6.12
2019-03-01T06:07:32.627Z,6.12
2019-03-01T06:08:32.623Z,6.12
2019-03-01T06:09:32.617Z,6.11
2019-03-01T06:10:32.608Z,6.11
2019-03-01T06:11:32.600Z,6.12
2019-03-01T06:12:32.589Z,6.16
2019-03-01T06:13:32.585Z,6.16
2019-03-01T06:14:32.574Z,6.12
2019-03-01T06:15:32.565Z,6.16
2019-03-01T06:16:32.558Z,6.11
2019-03-01T06:17:32.551Z,6.22
2019-03-01T06:18:32.541Z,6.17
2019-03-01T06:19:32.532Z,6.20
2019-03-01T06:20:32.568Z,6.17
2019-03-01T06:21:32.516Z,6.12
2019-03-01T06:22:32.572Z,6.14
2019-03-01T06:23:32.504Z,6.19
2019-03-01T06:24:32.490Z,6.22
2019-03-01T06:25:32.483Z,6.31
2019-03-01T06:26:32.474Z,6.28
2019-03-01T06:27:32.472Z,6.22
2019-03-01T06:28:32.458Z,6.28
2019-03-01T06:29:32.448Z,6.27
2019-03-01T06:30:32.442Z,6.20
2019-03-01T06:31:32.473Z,6.24
2019-03-01T06:32:32.423Z,6.26
2019-03-01T06:33:32.415Z,6.28
2019-03-01T06:34:32.407Z,6.27
2019-03-01T06:35:32.401Z,6.27
2019-03-01T06:36:32.405Z,6.30
2019-03-01T06:37:32.381Z,6.31
2019-03-01T06:38:32.375Z,6.31
2019-03-01T06:39:32.375Z,6.31
2019-03-01T06:40:32.357Z,6.33
2019-03-01T06:41:32.348Z,6.33
2019-03-01T06:42:32.341Z,6.30
2019-03-01T06:43:32.335Z,6.31
2019-03-01T06:44:32.323Z,6.33
2019-03-01T06:45:32.317Z,6.36
2019-03-01T06:46:32.310Z,6.36
2019-03-01T06:47:32.301Z,6.44
2019-03-01T06:48:32.296Z,6.42
2019-03-01T06:49:32.291Z,6.36
2019-03-01T06:50:32.274Z,6.35
2019-03-01T06:51:32.267Z,6.39
2019-03-01T06:52:32.262Z,6.35
2019-03-01T06:53:32.251Z,6.48
2019-03-01T06:54:32.243Z,6.31
2019-03-01T06:55:32.237Z,6.36
2019-03-01T06:56:32.227Z,6.35
2019-03-01T06:57:32.220Z,6.36
2019-03-01T06:58:32.211Z,6.51
2019-03-01T06:59:32.203Z,6.44
2019-03-01T07:00:32.197Z,6.45
2019-03-01T07:01:32.185Z,6.54
2019-03-01T07:02:32.185Z,6.48
2019-03-01T07:03:32.170Z,6.52
2019-03-01T07:04:32.163Z,6.46
2019-03-01T07:05:32.154Z,6.54
2019-03-01T07:06:32.149Z,6.48
2019-03-01T07:07:32.137Z,6.52
2019-03-01T07:08:32.131Z,6.52
2019-03-01T07:09:32.122Z,6.62
2019-03-01T07:10:32.116Z,6.49
2019-03-01T07:11:32.108Z,6.60
2019-03-01T07:12:32.095Z,6.59
2019-03-01T07:13:32.094Z,6.56
2019-03-01T07:14:32.085Z,6.54
2019-03-01T07:15:32.075Z,6.62
2019-03-01T07:16:32.064Z,6.57
2019-03-01T07:17:32.069Z,6.60
2019-03-01T07:18:32.048Z,6.63
2019-03-01T07:19:32.042Z,6.59
2019-03-01T07:20:32.033Z,6.60
2019-03-01T07:21:32.025Z,6.66
2019-03-01T07:22:32.020Z,6.59
2019-03-01T07:23:36.791Z,6.60
2019-03-01T07:24:32.000Z,6.63
2019-03-01T07:25:31.999Z,6.59
2019-03-01T07:26:31.992Z,6.54
2019-03-01T07:27:31.982Z,6.70
2019-03-01T07:28:31.969Z,6.60
2019-03-01T07:29:31.963Z,6.52
2019-03-01T07:30:31.954Z,6.39
2019-03-01T07:31:31.948Z,6.39
2019-03-01T07:32:31.935Z,6.44
2019-03-01T07:33:31.928Z,6.46
2019-03-01T07:34:31.919Z,6.46
2019-03-01T07:35:31.911Z,6.56
2019-03-01T07:36:31.904Z,6.51
2019-03-01T07:37:31.897Z,6.51
2019-03-01T07:38:31.893Z,6.63
2019-03-01T07:39:31.879Z,6.66
2019-03-01T07:40:31.870Z,6.62
2019-03-01T07:41:31.861Z,6.59
2019-03-01T07:42:31.855Z,6.57
2019-03-01T07:43:31.850Z,6.66
2019-03-01T07:44:31.844Z,6.66
2019-03-01T07:45:31.832Z,6.72
2019-03-01T07:46:31.823Z,6.70
2019-03-01T07:47:31.814Z,6.67
2019-03-01T07:48:31.807Z,6.67
2019-03-01T07:49:31.807Z,6.69
2019-03-01T07:50:31.793Z,6.67
2019-03-01T07:51:31.795Z,6.75
2019-03-01T07:52:31.773Z,6.67
2019-03-01T07:53:31.769Z,6.67
2019-03-01T07:54:31.760Z,6.72
2019-03-01T07:55:31.754Z,6.63
2019-03-01T07:56:31.745Z,6.51
2019-03-01T07:57:31.735Z,6.51
2019-03-01T07:58:31.729Z,6.51
2019-03-01T07:59:37.412Z,6.56
2019-03-01T08:00:31.717Z,6.59
2019-03-01T08:01:31.702Z,6.60
2019-03-01T08:02:31.697Z,6.74
2019-03-01T08:03:31.688Z,6.67
2019-03-01T08:04:31.677Z,6.66
2019-03-01T08:05:31.671Z,6.63
2019-03-01T08:06:31.661Z,6.70
2019-03-01T08:07:31.654Z,6.60
2019-03-01T08:08:34.782Z,6.63
2019-03-01T08:09:31.639Z,6.49
2019-03-01T08:10:31.630Z,6.52
2019-03-01T08:11:32.430Z,6.56
2019-03-01T08:12:31.615Z,6.54
2019-03-01T08:13:31.606Z,6.52
2019-03-01T08:14:31.702Z,6.56
2019-03-01T08:15:31.590Z,6.69
2019-03-01T08:16:31.584Z,6.60
2019-03-01T08:17:32.636Z,6.70
2019-03-01T08:18:31.567Z,6.64
2019-03-01T08:19:31.559Z,6.67
2019-03-01T08:20:33.915Z,6.72
2019-03-01T08:21:31.550Z,6.72
2019-03-01T08:22:31.538Z,6.81
2019-03-01T08:23:31.788Z,6.78
2019-03-01T08:24:31.518Z,6.75
2019-03-01T08:25:31.510Z,6.87
2019-03-01T08:26:34.085Z,6.88
2019-03-01T08:27:31.505Z,6.95
2019-03-01T08:28:31.487Z,6.92
2019-03-01T08:29:34.012Z,6.96
2019-03-01T08:30:31.490Z,6.93
2019-03-01T08:31:31.478Z,7.10
2019-03-01T08:32:31.920Z,7.07
2019-03-01T08:33:31.450Z,7.05
2019-03-01T08:34:31.439Z,7.07
2019-03-01T08:35:32.293Z,7.05
2019-03-01T08:36:31.423Z,7.05
2019-03-01T08:37:31.421Z,7.05
2019-03-01T08:38:33.288Z,7.06
2019-03-01T08:39:31.404Z,7.03
2019-03-01T08:40:31.392Z,7.03
2019-03-01T08:41:31.386Z,6.96
2019-03-01T08:42:32.583Z,7.05
2019-03-01T08:43:31.370Z,6.93
2019-03-01T08:44:31.363Z,6.85
2019-03-01T08:45:32.995Z,6.87
2019-03-01T08:46:31.349Z,6.82
2019-03-01T08:47:31.344Z,6.77
2019-03-01T08:48:33.657Z,6.87
2019-03-01T08:49:31.328Z,6.81
2019-03-01T08:50:31.317Z,6.84
2019-03-01T08:51:31.309Z,6.82
2019-03-01T08:52:31.300Z,6.87
2019-03-01T08:53:31.290Z,6.81
2019-03-01T08:54:31.345Z,6.87
2019-03-01T08:55:31.277Z,6.88
2019-03-01T08:56:31.268Z,6.78
2019-03-01T08:57:31.254Z,6.81
2019-03-01T08:58:31.254Z,6.89
2019-03-01T08:59:31.244Z,6.85
2019-03-01T09:00:31.236Z,6.89
2019-03-01T09:01:31.818Z,6.88
2019-03-01T09:02:31.225Z,6.87
2019-03-01T09:03:31.217Z,6.89
2019-03-01T09:04:37.516Z,6.97
2019-03-01T09:05:31.196Z,7.02
2019-03-01T09:06:31.190Z,6.97
2019-03-01T09:07:31.185Z,6.96
2019-03-01T09:08:31.172Z,7.02
2019-03-01T09:09:31.166Z,6.96
2019-03-01T09:10:32.501Z,6.97
2019-03-01T09:11:31.153Z,6.92
2019-03-01T09:12:31.144Z,7.02
2019-03-01T09:13:31.141Z,6.93
2019-03-01T09:14:31.127Z,7.07
2019-03-01T09:15:31.121Z,6.89
2019-03-01T09:16:31.111Z,6.84
2019-03-01T09:17:31.108Z,6.77
2019-03-01T09:18:31.096Z,6.60
2019-03-01T09:19:31.087Z,6.72
2019-03-01T09:20:32.456Z,6.60
2019-03-01T09:21:31.067Z,6.69
2019-03-01T09:22:31.062Z,6.66
2019-03-01T09:23:31.056Z,6.66
2019-03-01T09:24:31.065Z,6.74
2019-03-01T09:25:31.036Z,6.78
2019-03-01T09:26:31.052Z,6.77
2019-03-01T09:27:31.125Z,6.78
2019-03-01T09:28:32.765Z,6.77
2019-03-01T09:29:31.005Z,6.84
2019-03-01T09:30:31.005Z,6.81
2019-03-01T09:31:30.990Z,6.88
2019-03-01T09:32:33.850Z,6.92
2019-03-01T09:33:30.973Z,6.88
2019-03-01T09:34:32.194Z,6.89
2019-03-01T09:35:30.960Z,6.87
2019-03-01T09:36:30.950Z,6.92
2019-03-01T09:37:32.527Z,6.87
2019-03-01T09:38:30.933Z,6.75
2019-03-01T09:39:32.595Z,6.79
2019-03-01T09:40:30.917Z,6.78
2019-03-01T09:41:30.913Z,6.74
2019-03-01T09:42:30.902Z,6.78
2019-03-01T09:43:30.896Z,6.85
2019-03-01T09:44:30.887Z,6.93
2019-03-01T09:45:36.167Z,6.97
2019-03-01T09:46:30.868Z,6.99
2019-03-01T09:47:33.553Z,7.06
2019-03-01T09:48:30.856Z,7.06
2019-03-01T09:49:30.847Z,6.99
2019-03-01T09:50:31.663Z,6.81
2019-03-01T09:51:30.830Z,6.81
2019-03-01T09:52:30.823Z,6.66
2019-03-01T09:53:34.058Z,6.60
2019-03-01T09:54:30.805Z,6.57
2019-03-01T09:55:30.797Z,6.48
2019-03-01T09:56:30.789Z,6.48
2019-03-01T09:57:30.783Z,6.39
2019-03-01T09:58:30.773Z,6.31
2019-03-01T09:59:30.773Z,6.31
2019-03-01T10:00:30.755Z,6.48
2019-03-01T10:01:30.749Z,6.54
2019-03-01T10:02:30.740Z,6.62
2019-03-01T10:03:30.732Z,6.70
2019-03-01T10:04:30.725Z,6.75
2019-03-01T10:05:30.716Z,6.79
2019-03-01T10:06:37.782Z,6.87
2019-03-01T10:07:30.701Z,6.92
2019-03-01T10:08:30.690Z,6.89
2019-03-01T10:09:30.685Z,6.88
2019-03-01T10:10:30.681Z,6.93
2019-03-01T10:11:30.667Z,6.89
2019-03-01T10:12:30.659Z,6.95
2019-03-01T10:13:30.655Z,6.89
2019-03-01T10:14:30.645Z,7.00
2019-03-01T10:15:30.638Z,7.06
2019-03-01T10:16:30.627Z,7.07
2019-03-01T10:17:30.619Z,7.20
2019-03-01T10:18:30.610Z,7.20
2019-03-01T10:19:30.607Z,7.17
2019-03-01T10:20:30.598Z,7.15
2019-03-01T10:21:30.588Z,7.18
2019-03-01T10:22:30.580Z,7.20
2019-03-01T10:23:30.570Z,7.21
2019-03-01T10:24:30.569Z,7.20
2019-03-01T10:25:30.555Z,7.07
2019-03-01T10:26:30.547Z,7.06
2019-03-01T10:27:30.540Z,6.85
2019-03-01T10:28:30.531Z,6.74
2019-03-01T10:29:30.527Z,6.74
2019-03-01T10:30:30.518Z,6.60
2019-03-01T10:31:30.510Z,6.70
2019-03-01T10:32:30.501Z,6.64
2019-03-01T10:33:30.491Z,6.69
2019-03-01T10:34:30.484Z,6.67
2019-03-01T10:35:30.479Z,6.60
2019-03-01T10:36:30.468Z,6.63
2019-03-01T10:37:30.461Z,6.70
2019-03-01T10:38:30.451Z,6.72
2019-03-01T10:39:55.435Z,6.75
2019-03-01T10:40:30.435Z,6.75
2019-03-01T10:41:30.435Z,6.72
2019-03-01T10:42:30.425Z,6.75
2019-03-01T10:43:30.411Z,6.75
2019-03-01T10:44:30.404Z,6.57
2019-03-01T10:45:30.394Z,6.62
2019-03-01T10:46:30.387Z,6.57
2019-03-01T10:47:30.379Z,6.63
2019-03-01T10:48:30.370Z,6.66
2019-03-01T10:49:30.363Z,6.66
2019-03-01T10:50:30.354Z,6.72
2019-03-01T10:51:30.347Z,6.64
2019-03-01T10:52:30.336Z,6.64
2019-03-01T10:53:30.334Z,6.66
2019-03-01T10:54:30.321Z,6.70
2019-03-01T10:55:30.318Z,6.70
2019-03-01T10:56:30.305Z,6.66
2019-03-01T10:57:30.297Z,6.64
2019-03-01T10:58:30.288Z,6.62
2019-03-01T10:59:30.282Z,6.69
2019-03-01T11:00:30.276Z,6.70
2019-03-01T11:01:30.265Z,6.67
2019-03-01T11:02:30.258Z,6.63
2019-03-01T11:03:30.249Z,6.52
2019-03-01T11:04:30.248Z,6.39
2019-03-01T11:05:30.230Z,6.33
2019-03-01T11:06:30.224Z,6.16
2019-03-01T11:07:30.218Z,6.19
2019-03-01T11:08:30.209Z,6.17
2019-03-01T11:09:30.200Z,6.16
2019-03-01T11:10:30.193Z,6.26
2019-03-01T11:11:30.183Z,6.22
2019-03-01T11:12:30.174Z,6.22
2019-03-01T11:13:30.165Z,6.24
2019-03-01T11:14:30.158Z,6.28
2019-03-01T11:15:30.166Z,6.24
2019-03-01T11:16:30.141Z,6.27
2019-03-01T11:17:30.137Z,6.33
2019-03-01T11:18:30.140Z,6.46
2019-03-01T11:19:30.116Z,6.56
2019-03-01T11:20:30.109Z,6.60
2019-03-01T11:21:30.102Z,6.60
2019-03-01T11:22:30.092Z,6.62
2019-03-01T11:23:30.083Z,6.70
2019-03-01T11:24:30.073Z,6.67
2019-03-01T11:25:30.066Z,6.75
2019-03-01T11:26:30.058Z,6.66
2019-03-01T11:27:30.047Z,6.67
2019-03-01T11:28:30.042Z,6.70
2019-03-01T11:29:30.032Z,6.78
2019-03-01T11:30:30.026Z,6.77
2019-03-01T11:31:30.016Z,6.75
2019-03-01T11:32:30.007Z,6.79
2019-03-01T11:33:30.001Z,6.87
2019-03-01T11:34:29.992Z,6.77
2019-03-01T11:35:29.985Z,6.78
2019-03-01T11:36:29.979Z,6.69
2019-03-01T11:37:29.964Z,6.81
2019-03-01T11:38:29.962Z,6.93
2019-03-01T11:39:29.949Z,6.92
2019-03-01T11:40:29.948Z,6.87
2019-03-01T11:41:29.937Z,6.92
2019-03-01T11:42:29.929Z,6.92
2019-03-01T11:43:29.918Z,6.88
2019-03-01T11:44:29.909Z,6.75
2019-03-01T11:45:29.899Z,6.75
2019-03-01T11:46:29.891Z,6.79
2019-03-01T11:47:29.884Z,6.79
2019-03-01T11:48:29.878Z,6.74
2019-03-01T11:49:29.866Z,6.70
2019-03-01T11:50:29.881Z,6.66
2019-03-01T11:51:29.851Z,6.79
2019-03-01T11:52:29.842Z,6.72
2019-03-01T11:53:29.837Z,6.78
2019-03-01T11:54:29.830Z,6.70
2019-03-01T11:55:29.820Z,6.66
2019-03-01T11:56:29.810Z,6.66
2019-03-01T11:57:29.802Z,6.62
2019-03-01T11:58:29.793Z,6.60
2019-03-01T11:59:29.785Z,6.62
2019-03-01T12:00:29.780Z,6.60
2019-03-01T12:01:29.770Z,6.52
2019-03-01T12:02:29.760Z,6.49
2019-03-01T12:03:29.752Z,6.48
2019-03-01T12:04:29.743Z,6.59
2019-03-01T12:05:29.735Z,6.56
2019-03-01T12:06:29.728Z,6.49
2019-03-01T12:07:29.722Z,6.51
2019-03-01T12:08:29.709Z,6.62
2019-03-01T12:09:29.709Z,6.51
2019-03-01T12:10:29.692Z,6.51
2019-03-01T12:11:29.682Z,6.59
2019-03-01T12:12:29.675Z,6.56
2019-03-01T12:13:29.670Z,6.60
2019-03-01T12:14:29.661Z,6.57
2019-03-01T12:15:29.696Z,6.66
2019-03-01T12:16:29.643Z,6.56
2019-03-01T12:17:29.635Z,6.52
2019-03-01T12:18:29.625Z,6.56
2019-03-01T12:19:29.617Z,6.57
2019-03-01T12:20:29.606Z,6.62
2019-03-01T12:21:29.602Z,6.49
2019-03-01T12:22:29.591Z,6.59
2019-03-01T12:23:29.585Z,6.66
2019-03-01T12:24:29.574Z,6.75
2019-03-01T12:25:29.564Z,6.63
2019-03-01T12:26:29.558Z,6.67
2019-03-01T12:27:29.550Z,6.69
2019-03-01T12:28:29.539Z,6.60
2019-03-01T12:29:29.532Z,6.64
2019-03-01T12:30:29.526Z,6.75
2019-03-01T12:31:29.515Z,6.77
2019-03-01T12:32:29.506Z,6.66
2019-03-01T12:33:29.495Z,6.69
2019-03-01T12:34:29.490Z,6.77
2019-03-01T12:35:29.484Z,6.77
2019-03-01T12:36:29.472Z,6.69
2019-03-01T12:37:29.465Z,6.72
2019-03-01T12:38:29.457Z,6.59
2019-03-01T12:39:29.447Z,6.59
2019-03-01T12:40:29.438Z,6.59
2019-03-01T12:41:29.434Z,6.60
2019-03-01T12:42:29.424Z,6.60
2019-03-01T12:43:29.414Z,6.54
2019-03-01T12:44:29.408Z,6.52
2019-03-01T12:45:29.399Z,6.46
2019-03-01T12:46:29.388Z,6.49
2019-03-01T12:47:29.379Z,6.49
2019-03-01T12:48:29.367Z,6.48
2019-03-01T12:49:29.366Z,6.48
2019-03-01T12:50:29.354Z,6.36
2019-03-01T12:51:29.349Z,6.33
2019-03-01T12:52:29.346Z,6.28
2019-03-01T12:53:29.326Z,6.31
2019-03-01T12:54:29.319Z,6.14
2019-03-01T12:55:29.314Z,6.16
2019-03-01T12:56:29.308Z,6.20
2019-03-01T12:57:29.296Z,6.07
2019-03-01T12:58:29.288Z,6.11
2019-03-01T12:59:29.278Z,6.08
2019-03-01T13:00:29.266Z,6.22
2019-03-01T13:01:29.260Z,6.20
2019-03-01T13:02:29.253Z,6.12
2019-03-01T13:03:30.072Z,6.08
2019-03-01T13:04:29.232Z,6.12
2019-03-01T13:05:30.294Z,6.14
2019-03-01T13:06:29.216Z,6.19
2019-03-01T13:07:29.208Z,6.11
2019-03-01T13:08:29.207Z,6.14
2019-03-01T13:09:29.213Z,6.22
2019-03-01T13:10:29.180Z,6.16
2019-03-01T13:11:29.177Z,6.12
2019-03-01T13:12:29.163Z,6.26
2019-03-01T13:13:29.157Z,6.30
2019-03-01T13:14:29.146Z,6.28
2019-03-01T13:15:29.140Z,6.24
2019-03-01T13:16:29.128Z,6.35
2019-03-01T13:17:29.121Z,6.28
2019-03-01T13:18:29.111Z,6.35
2019-03-01T13:19:29.104Z,6.30
2019-03-01T13:20:29.888Z,6.24
2019-03-01T13:21:29.089Z,6.26
2019-03-01T13:22:29.076Z,6.22
2019-03-01T13:23:29.071Z,6.20
2019-03-01T13:24:29.059Z,6.27